Airfield :
LOGIN :

Register | Disclaimer

   EN    FR    IT 

 










Legend :    VFR   Marginal VFR   IFR   Intensive IFR   Very Intensive IFR
Visi :
Ceiling :
>= 8 km
>= 3000ft
5 to 8 km
1000 to 3000 ft
1500m to 5 km
500 to 1000 ft
800 to 1500m
200 to 500 ft
< 800m
< 200 ft
Symbols :   Thunderstorms  Fog  Heavy snow  Heavy precipitations  Wind > 20 kt
SIGMETs :     Misc.  Thunderstorms  Icing  Turbulence  Mountain Waves  Volcanic Ashes






- Airport Elevation : 117 ft
- IATA code : NWI


EGSH - Norwich

CURRENT METAR :
  • 230820Z 20012KT 6000 -RADZ SCT006 BKN009 13/12 Q1007 TEMPO 6000 BKN009

EXPIRED METARs :
  • 230750Z 20011KT 6000 SCT004 BKN007 13/12 Q1007 TEMPO 6000 BKN009
  • 230720Z 20010KT 6000 BKN004 12/12 Q1007 TEMPO 6000
  • 230650Z 19009KT 3000 BR BKN003 11/11 Q1007 TEMPO 3000 BR
  • 230620Z 19008KT 5000 BKN003 11/10 Q1007 TEMPO BKN005
  • 230550Z 17005KT 9000 SCT004 BKN036 10/10 Q1007
  • 230520Z AUTO 18005KT 9999 SCT010/// 10/09 Q1008

TAF TAF EGSH
Valid from the 23 at 06:00 until the 23 at 15:00 UTC


230625Z 2306/2315 17006KT 9999 SCT020
TEMPO 2306/2308 6000 BKN003
PROB30
TEMPO 2306/2308 4000 BR
BECMG 2309/2312 23010KT
PROB40
TEMPO 2309/2312 BKN012
ATIS : +44 1603 420 640



MET'MAP, your aeronautical weather chart ! - Copyright ORBIFLY December 2007 - Disclaimer

ORBIFLY MET'MAP TEAM :

Programming & Development : Alexandra Zaïnal
Concept & original design : Baudouin d'Aumeries
Assistance for programming : Marc-Olivier Méhu
Technical & hardware support : Manuel Goepfert

Contact : metmap@orbifly.com




SOURCES & CREDITS :

   NOAA